Leon, Iowa
Current Conditions -  °F | °C
As of 5:53 PM on Friday 21 Nov 2014 (Local Time) from KLWD Reporting Station
Light Rain Light Rain  
Wind Chill: 29°   Ceiling: 1800
Heat Index: 35°   Visibility: 8mi
Dew Point: 28°   Wind: 8mph
Humidity: 76%   Direction: 150°SSE
Pressure: 30.11"   Gusts: NA
Location:  40.74°N, 93.75°W
Report Text: KLWD 212353Z AUTO 15007KT 8SM -RA OVC018 02/M02 A3011 RMK AO2 RAB45 SLP210 P0000 60000 T00171022 10028 20006 58007
Loading
Personal Weather Stations






























Interactive Weather Map New forecast layout! Learn more

10-Day Weather Forecast

Advertisements
Track Severe Weather on mobile